KSANKSBD

Guest
Details From KSAN - San Diego Intl
To KSBD - San Bernardino Intl
Flight Number -
Tags Generated
Created
Modified
Stats Distance 81 nm / 151 km
Max Altitude 0 ft / 0 m
Waypoints 2
Social Downloads 2
Likes 0
Share VATSIM

Download

Looking for another format? Having issues loading an existing format? Contact us
Advertisement - Login to hide

Notes

Generated

Route

KSAN KSBD

ID Type Via Altitude Latitude Longitude Leg Dist Tot Dist Heading (true) Name
O KSAN APT - 0 ft / 0 m 32.73712˚ -117.20435˚ - 0 nm - -
O KSBD APT - 0 ft / 0 m 34.09073˚ -117.25038˚ 81 nm 81 nm 358° / 358° -

Altitude Profile

Advertisement - Login to hide

KSAN

Details ICAO KSAN (SAN)
Name San Diego Intl
Region United States
Timezone America/Los_Angeles (UTC-7.0)
Stats Elevation 17 ft / 5 m (AMSL)
Location 32.733556° -117.189658°
Runways 1
Magnetic Variation 11.487° E

METAR

KSAN 251051Z 30005KT 10SM SCT022 OVC040 17/11 A3010 RMK AO2 SLP193 T01670111

Decode

TAF

TAF AMD KSAN 250940Z 2510/2612 VRB04KT P6SM SCT025 OVC035 FM251900 29011KT P6SM SCT035 FM260400 VRB05KT P6SM BKN025

Decode

Departure Runways

ID Width Length Bearing (true) Bearing (mag) Surface Threshold Offset Overrun Length
09 200 ft / 61 m 9,387 ft / 2,861 m 106.07° 94.58° Asphalt 699 ft / 213 m 269 ft / 82 m
27 200 ft / 61 m 9,387 ft / 2,861 m 286.08° 274.59° Asphalt 1,811 ft / 552 m 0 ft / 0 m

KSBD

Details ICAO KSBD (SBD)
Name San Bernardino Intl
Region United States
Timezone America/Los_Angeles (UTC-7.0)
Stats Elevation 1,157 ft / 353 m (AMSL)
Location 34.095343° -117.234869°
Runways 1
Magnetic Variation 11.752° E

METAR

KSBD 251120Z AUTO 27004KT 10SM OVC016 15/10 A3008 RMK AO2 T01500104

Decode

TAF

TAF AMD KSBD 250707Z 2507/2606 VRB04KT P6SM OVC015 FM251700 VRB04KT 5SM HZ SCT025 FM252100 25010KT 5SM HZ SCT025

Decode

Destination Runways

ID Width Length Bearing (true) Bearing (mag) Surface Threshold Offset Overrun Length
06 180 ft / 55 m 9,963 ft / 3,037 m 70.26° 58.51° Asphalt 0 ft / 0 m 1,000 ft / 305 m
24 180 ft / 55 m 9,963 ft / 3,037 m 250.27° 238.52° Asphalt 0 ft / 0 m 1,000 ft / 305 m

Approach Navaids

Runway Type Ident Frequency Range Bearing (true) Bearing (mag) Slope Elevation
06 Localiser ISBD 109.30 MHz 18 nm / 33 km 70.31° 58.56° - 1,086 ft / 331 m (AMSL)
06 Glidescope ISBD 109.30 MHz 10 nm / 19 km 70.27° 58.51° 3.00° 1,157 ft / 353 m (AMSL)

Popular Alternatives